createdAt,value
2019-02-16T00:01:30.085Z,20.60
2019-02-16T00:03:59.417Z,21.23
2019-02-16T00:06:29.862Z,21.80
2019-02-16T00:08:59.279Z,21.20
2019-02-16T00:11:28.956Z,20.63
2019-02-16T00:13:58.338Z,19.90
2019-02-16T00:16:27.729Z,18.60
2019-02-16T00:18:57.162Z,19.70
2019-02-16T00:21:26.573Z,22.17
2019-02-16T00:23:55.956Z,20.20
2019-02-16T00:26:25.572Z,18.75
2019-02-16T00:28:54.960Z,16.90
2019-02-16T00:31:24.363Z,16.90
2019-02-16T00:33:54.486Z,15.90
2019-02-16T00:36:23.874Z,13.90
2019-02-16T00:38:54.219Z,14.20
2019-02-16T00:41:23.911Z,13.80
2019-02-16T00:43:53.304Z,14.50
2019-02-16T00:46:22.889Z,13.83
2019-02-16T00:48:52.356Z,15.60
2019-02-16T00:51:21.746Z,14.87
2019-02-16T00:53:52.293Z,16.37
2019-02-16T00:56:22.007Z,15.63
2019-02-16T00:58:52.347Z,16.00
2019-02-16T01:01:22.632Z,15.13
2019-02-16T01:03:52.033Z,15.30
2019-02-16T01:06:22.366Z,16.12
2019-02-16T01:08:52.845Z,15.50
2019-02-16T01:11:24.013Z,16.23
2019-02-16T01:13:53.526Z,18.60
2019-02-16T01:16:23.544Z,16.80
2019-02-16T01:18:53.042Z,16.20
2019-02-16T01:21:23.390Z,16.07
2019-02-16T01:23:52.737Z,17.30
2019-02-16T01:26:22.189Z,16.04
2019-02-16T01:28:52.924Z,15.60
2019-02-16T01:31:23.252Z,15.20
2019-02-16T01:33:53.725Z,15.63
2019-02-16T01:36:24.642Z,16.82
2019-02-16T01:38:53.993Z,16.93
2019-02-16T01:41:23.605Z,15.57
2019-02-16T01:43:53.310Z,16.73
2019-02-16T01:46:22.716Z,16.40
2019-02-16T01:48:52.284Z,15.60
2019-02-16T01:51:21.792Z,16.32
2019-02-16T01:53:51.159Z,16.15
2019-02-16T01:56:24.756Z,15.93
2019-02-16T01:58:54.364Z,17.00
2019-02-16T02:01:24.684Z,17.27
2019-02-16T02:03:54.118Z,16.65
2019-02-16T02:06:24.157Z,17.50
2019-02-16T02:08:53.604Z,18.20
2019-02-16T02:11:23.030Z,19.10
2019-02-16T02:13:52.418Z,19.13
2019-02-16T02:16:22.273Z,19.55
2019-02-16T02:18:54.532Z,18.43
2019-02-16T02:21:23.847Z,17.63
2019-02-16T02:23:55.334Z,18.77
2019-02-16T02:26:29.075Z,18.37
2019-02-16T02:28:58.446Z,21.47
2019-02-16T02:31:28.328Z,20.40
2019-02-16T02:34:01.147Z,21.10
2019-02-16T02:36:33.155Z,20.73
2019-02-16T02:39:02.715Z,22.37
2019-02-16T02:41:32.129Z,21.95
2019-02-16T02:44:02.738Z,26.80
2019-02-16T02:46:32.063Z,26.80
2019-02-16T02:49:01.500Z,29.33
2019-02-16T02:51:31.388Z,27.30
2019-02-16T02:54:01.864Z,29.83
2019-02-16T02:56:31.489Z,30.30
2019-02-16T02:59:00.873Z,26.97
2019-02-16T03:01:35.496Z,26.12
2019-02-16T03:04:04.981Z,28.47
2019-02-16T03:06:35.877Z,29.87
2019-02-16T03:09:06.043Z,32.57
2019-02-16T03:11:37.124Z,27.53
2019-02-16T03:14:06.471Z,24.80
2019-02-16T03:16:36.726Z,21.73
2019-02-16T03:19:08.233Z,20.02
2019-02-16T03:21:42.319Z,18.47
2019-02-16T03:24:11.702Z,17.20
2019-02-16T03:27:15.634Z,18.30
2019-02-16T03:30:47.388Z,18.43
2019-02-16T03:33:40.574Z,18.23
2019-02-16T03:36:40.500Z,19.00
2019-02-16T03:39:16.312Z,17.57
2019-02-16T03:41:46.765Z,17.10
2019-02-16T03:44:16.513Z,17.85
2019-02-16T03:46:47.354Z,17.40
2019-02-16T03:49:19.578Z,17.70
2019-02-16T03:51:53.313Z,19.90
2019-02-16T03:54:23.783Z,19.03
2019-02-16T03:56:53.169Z,19.40
2019-02-16T03:59:22.558Z,18.50
2019-02-16T04:01:52.815Z,19.12
2019-02-16T04:04:22.204Z,19.00
2019-02-16T04:06:51.597Z,20.40
2019-02-16T04:09:22.214Z,19.30
2019-02-16T04:11:52.673Z,19.77
2019-02-16T04:14:22.078Z,20.26
2019-02-16T04:16:51.498Z,20.40
2019-02-16T04:19:20.894Z,20.30
2019-02-16T04:21:50.315Z,18.67
2019-02-16T04:24:21.105Z,18.20
2019-02-16T04:26:51.087Z,18.73
2019-02-16T04:29:20.473Z,16.90
2019-02-16T04:31:53.535Z,16.10
2019-02-16T04:34:24.079Z,14.17
2019-02-16T04:36:53.642Z,14.90
2019-02-16T04:39:24.417Z,14.97
2019-02-16T04:41:53.783Z,15.40
2019-02-16T04:44:24.029Z,12.63
2019-02-16T04:46:55.959Z,11.97
2019-02-16T04:49:25.318Z,12.80
2019-02-16T04:51:55.175Z,11.90
2019-02-16T04:54:29.396Z,12.23
2019-02-16T04:56:59.991Z,13.30
2019-02-16T04:59:29.342Z,16.60
2019-02-16T05:01:58.773Z,16.40
2019-02-16T05:04:28.173Z,14.00
2019-02-16T05:06:57.585Z,14.00
2019-02-16T05:09:27.275Z,13.30
2019-02-16T05:11:56.673Z,11.87
2019-02-16T05:14:26.077Z,11.70
2019-02-16T05:16:55.541Z,11.80
2019-02-16T05:19:24.944Z,12.53
2019-02-16T05:21:56.098Z,11.70
2019-02-16T05:24:25.454Z,11.93
2019-02-16T05:26:55.592Z,13.37
2019-02-16T05:29:25.595Z,12.73
2019-02-16T05:31:57.506Z,12.50
2019-02-16T05:34:27.004Z,13.20
2019-02-16T05:36:56.388Z,12.63
2019-02-16T05:39:26.224Z,12.20
2019-02-16T05:41:55.609Z,12.20
2019-02-16T05:44:25.066Z,11.80
2019-02-16T05:46:55.303Z,12.27
2019-02-16T05:49:27.541Z,12.60
2019-02-16T05:51:57.303Z,14.10
2019-02-16T05:54:26.701Z,15.13
2019-02-16T05:56:56.086Z,21.68
2019-02-16T05:59:25.494Z,20.93
2019-02-16T06:01:55.165Z,20.23
2019-02-16T06:04:26.303Z,18.90
2019-02-16T06:06:55.674Z,24.13
2019-02-16T06:09:25.059Z,22.67
2019-02-16T06:11:54.439Z,18.83
2019-02-16T06:14:24.456Z,13.43
2019-02-16T06:16:59.169Z,15.80
2019-02-16T06:19:29.624Z,14.47
2019-02-16T06:21:59.120Z,13.35
2019-02-16T06:24:28.477Z,12.87
2019-02-16T06:26:58.095Z,12.43
2019-02-16T06:29:27.924Z,13.20
2019-02-16T06:31:57.407Z,13.33
2019-02-16T06:34:27.010Z,14.90
2019-02-16T06:36:57.347Z,14.73
2019-02-16T06:39:26.746Z,13.70
2019-02-16T06:41:56.513Z,12.78
2019-02-16T06:44:26.220Z,11.90
2019-02-16T06:46:55.613Z,10.97
2019-02-16T06:49:25.021Z,11.53
2019-02-16T06:51:54.887Z,10.53
2019-02-16T06:54:24.284Z,11.83
2019-02-16T06:57:06.296Z,11.10
2019-02-16T06:59:36.035Z,14.33
2019-02-16T07:02:05.776Z,12.03
2019-02-16T07:04:36.034Z,16.52
2019-02-16T07:07:06.161Z,13.30
2019-02-16T07:09:35.678Z,14.77
2019-02-16T07:12:05.082Z,17.77
2019-02-16T07:14:34.895Z,17.12
2019-02-16T07:17:23.102Z,16.20
2019-02-16T07:19:55.376Z,19.63
2019-02-16T07:22:25.032Z,18.90
2019-02-16T07:24:54.538Z,16.10
2019-02-16T07:27:24.493Z,13.72
2019-02-16T07:29:53.941Z,13.27
2019-02-16T07:32:24.058Z,14.77
2019-02-16T07:34:53.480Z,13.90
2019-02-16T07:37:23.006Z,12.40
2019-02-16T07:39:55.202Z,11.93
2019-02-16T07:42:26.482Z,11.73
2019-02-16T07:45:21.181Z,10.70
2019-02-16T07:48:12.253Z,9.73
2019-02-16T07:50:55.022Z,10.87
2019-02-16T07:53:48.964Z,11.60
2019-02-16T07:56:26.185Z,11.43
2019-02-16T07:59:14.868Z,12.50
2019-02-16T08:02:00.720Z,12.17
2019-02-16T08:04:57.040Z,12.40
2019-02-16T08:08:03.885Z,10.50
2019-02-16T08:10:58.936Z,9.75
2019-02-16T08:13:32.537Z,8.73
2019-02-16T08:16:36.473Z,8.90
2019-02-16T08:19:20.765Z,7.93
2019-02-16T08:22:19.134Z,8.37
2019-02-16T08:25:02.293Z,8.27
2019-02-16T08:27:54.303Z,9.97
2019-02-16T08:30:52.064Z,8.80
2019-02-16T08:33:36.531Z,8.35
2019-02-16T08:36:16.334Z,7.80
2019-02-16T08:39:13.924Z,7.60
2019-02-16T08:42:04.757Z,7.53
2019-02-16T08:44:48.741Z,7.87
2019-02-16T08:47:28.419Z,7.67
2019-02-16T08:50:12.465Z,7.53
2019-02-16T08:52:56.121Z,7.00
2019-02-16T08:55:44.520Z,7.50
2019-02-16T08:58:38.577Z,6.33
2019-02-16T09:01:29.977Z,7.50
2019-02-16T09:04:13.394Z,8.00
2019-02-16T09:07:01.192Z,7.30
2019-02-16T09:09:58.547Z,7.30
2019-02-16T09:12:47.293Z,8.40
2019-02-16T09:15:40.620Z,7.10
2019-02-16T09:18:21.014Z,7.60
2019-02-16T09:21:14.344Z,7.10
2019-02-16T09:24:04.945Z,7.73
2019-02-16T09:26:42.222Z,8.70
2019-02-16T09:29:37.169Z,8.63
2019-02-16T09:32:26.997Z,8.90
2019-02-16T09:35:21.185Z,8.10
2019-02-16T09:38:03.775Z,7.73
2019-02-16T09:40:58.347Z,8.28
2019-02-16T09:43:43.467Z,8.10
2019-02-16T09:46:40.577Z,9.07
2019-02-16T09:49:29.467Z,9.87
2019-02-16T09:52:21.634Z,9.70
2019-02-16T09:55:19.031Z,8.80
2019-02-16T09:58:29.388Z,8.87
2019-02-16T10:01:27.949Z,9.10
2019-02-16T10:04:25.647Z,9.40
2019-02-16T10:07:30.538Z,8.90
2019-02-16T10:10:19.655Z,10.07
2019-02-16T10:13:09.686Z,9.40
2019-02-16T10:15:56.771Z,9.38
2019-02-16T10:18:48.061Z,10.50
2019-02-16T10:21:27.719Z,9.80
2019-02-16T10:24:25.645Z,9.80
2019-02-16T10:27:05.144Z,9.30
2019-02-16T10:30:05.624Z,8.93
2019-02-16T10:33:06.235Z,8.58
2019-02-16T10:36:07.847Z,8.97
2019-02-16T10:38:50.161Z,8.80
2019-02-16T10:41:49.418Z,9.07
2019-02-16T10:44:48.024Z,8.20
2019-02-16T10:47:41.598Z,8.07
2019-02-16T10:50:25.893Z,8.70
2019-02-16T10:53:07.131Z,8.23
2019-02-16T10:55:54.974Z,7.83
2019-02-16T10:58:49.884Z,8.27
2019-02-16T11:01:35.659Z,8.03
2019-02-16T11:04:38.229Z,8.50
2019-02-16T11:07:12.652Z,6.70
2019-02-16T11:10:04.588Z,8.15
2019-02-16T11:12:42.097Z,7.50
2019-02-16T11:15:31.991Z,8.18
2019-02-16T11:18:19.315Z,7.60
2019-02-16T11:21:06.264Z,7.20
2019-02-16T11:23:55.381Z,7.03
2019-02-16T11:26:35.790Z,6.70
2019-02-16T11:29:39.593Z,7.30
2019-02-16T11:32:28.506Z,7.27
2019-02-16T11:35:26.945Z,7.40
2019-02-16T11:38:17.258Z,7.70
2019-02-16T11:40:55.599Z,6.67
2019-02-16T11:43:55.102Z,6.70
2019-02-16T11:46:53.563Z,7.03
2019-02-16T11:49:45.848Z,6.08
2019-02-16T11:52:35.892Z,6.80
2019-02-16T11:55:25.218Z,6.60
2019-02-16T11:58:14.004Z,6.23
2019-02-16T12:00:58.329Z,6.23
2019-02-16T12:03:43.019Z,6.07
2019-02-16T12:06:22.997Z,6.67
2019-02-16T12:09:07.016Z,6.47
2019-02-16T12:11:44.883Z,6.10
2019-02-16T12:14:46.412Z,6.60
2019-02-16T12:17:29.669Z,6.55
2019-02-16T12:20:33.098Z,5.80
2019-02-16T12:23:16.944Z,5.70
2019-02-16T12:26:03.579Z,6.20
2019-02-16T12:28:48.369Z,5.90
2019-02-16T12:31:56.846Z,6.50
2019-02-16T12:34:43.880Z,5.30
2019-02-16T12:37:28.276Z,5.30
2019-02-16T12:40:06.244Z,6.20
2019-02-16T12:43:06.991Z,5.90
2019-02-16T12:45:55.008Z,5.73
2019-02-16T12:48:33.337Z,6.20
2019-02-16T12:51:27.117Z,4.17
2019-02-16T12:54:14.613Z,5.10
2019-02-16T12:57:18.306Z,4.40
2019-02-16T12:59:53.531Z,4.17
2019-02-16T13:02:57.248Z,5.22
2019-02-16T13:05:47.114Z,4.37
2019-02-16T13:08:33.480Z,5.08
2019-02-16T13:11:25.761Z,4.63
2019-02-16T13:14:06.875Z,5.07
2019-02-16T13:16:54.540Z,4.57
2019-02-16T13:19:51.485Z,4.27
2019-02-16T13:22:34.054Z,4.77
2019-02-16T13:25:12.869Z,4.60
2019-02-16T13:28:07.001Z,5.10
2019-02-16T13:31:02.240Z,5.30
2019-02-16T13:33:44.883Z,5.30
2019-02-16T13:36:39.681Z,5.00
2019-02-16T13:39:40.773Z,4.90
2019-02-16T13:42:27.449Z,5.30
2019-02-16T13:45:04.677Z,5.83
2019-02-16T13:47:42.314Z,5.62
2019-02-16T13:50:20.322Z,5.33
2019-02-16T13:53:09.198Z,5.23
2019-02-16T13:56:06.113Z,5.37
2019-02-16T13:58:45.215Z,5.90
2019-02-16T14:01:33.237Z,5.70
2019-02-16T14:04:18.898Z,5.30
2019-02-16T14:07:11.041Z,5.70
2019-02-16T14:10:04.975Z,5.40
2019-02-16T14:12:49.641Z,6.28
2019-02-16T14:15:31.748Z,5.93
2019-02-16T14:18:03.692Z,6.15
2019-02-16T14:20:33.484Z,5.90
2019-02-16T14:23:02.914Z,5.40
2019-02-16T14:25:46.229Z,5.37
2019-02-16T14:28:16.257Z,5.80
2019-02-16T14:30:45.893Z,5.70
2019-02-16T14:33:17.382Z,5.55
2019-02-16T14:35:48.489Z,5.87
2019-02-16T14:38:40.848Z,5.33
2019-02-16T14:41:10.396Z,5.55
2019-02-16T14:43:40.621Z,5.37
2019-02-16T14:46:10.561Z,6.23
2019-02-16T14:48:41.127Z,5.77
2019-02-16T14:51:10.778Z,5.60
2019-02-16T14:53:40.439Z,5.67
2019-02-16T14:56:09.812Z,5.50
2019-02-16T14:58:39.192Z,6.03
2019-02-16T15:01:10.116Z,5.30
2019-02-16T15:03:39.819Z,6.03
2019-02-16T15:06:09.141Z,5.83
2019-02-16T15:08:39.046Z,6.27
2019-02-16T15:11:08.492Z,6.07
2019-02-16T15:13:39.114Z,6.30
2019-02-16T15:16:08.522Z,6.20
2019-02-16T15:18:39.124Z,5.77
2019-02-16T15:21:08.492Z,6.53
2019-02-16T15:23:38.680Z,6.33
2019-02-16T15:26:08.054Z,6.50
2019-02-16T15:28:39.758Z,6.50
2019-02-16T15:31:09.825Z,6.83
2019-02-16T15:33:41.110Z,7.33
2019-02-16T15:36:10.443Z,8.03
2019-02-16T15:38:40.145Z,7.30
2019-02-16T15:41:13.492Z,7.50
2019-02-16T15:43:44.215Z,7.33
2019-02-16T15:46:15.464Z,6.70
2019-02-16T15:48:45.030Z,7.60
2019-02-16T15:51:15.441Z,7.70
2019-02-16T15:53:44.859Z,7.00
2019-02-16T15:56:14.240Z,7.60
2019-02-16T15:58:43.668Z,7.63
2019-02-16T16:01:13.642Z,9.03
2019-02-16T16:03:43.963Z,8.90
2019-02-16T16:06:13.268Z,9.57
2019-02-16T16:08:50.201Z,8.57
2019-02-16T16:11:28.681Z,8.60
2019-02-16T16:14:17.106Z,8.90
2019-02-16T16:16:57.806Z,9.67
2019-02-16T16:19:53.952Z,11.57
2019-02-16T16:22:54.801Z,11.97
2019-02-16T16:25:38.773Z,11.22
2019-02-16T16:28:30.022Z,10.63
2019-02-16T16:31:22.264Z,11.30
2019-02-16T16:34:13.404Z,11.87
2019-02-16T16:37:04.493Z,11.60
2019-02-16T16:39:59.570Z,13.53
2019-02-16T16:42:50.418Z,12.75
2019-02-16T16:45:32.572Z,14.23
2019-02-16T16:48:20.929Z,14.50
2019-02-16T16:50:59.652Z,15.17
2019-02-16T16:53:46.421Z,17.17
2019-02-16T16:56:28.567Z,13.83
2019-02-16T16:59:16.980Z,15.10
2019-02-16T17:02:03.888Z,15.87
2019-02-16T17:04:55.353Z,16.73
2019-02-16T17:07:32.114Z,15.30
2019-02-16T17:10:20.615Z,14.87
2019-02-16T17:13:10.258Z,15.43
2019-02-16T17:15:51.970Z,14.87
2019-02-16T17:18:40.657Z,15.72
2019-02-16T17:21:27.806Z,14.50
2019-02-16T17:24:17.636Z,15.93
2019-02-16T17:26:59.584Z,16.27
2019-02-16T17:29:50.850Z,17.13
2019-02-16T17:32:36.986Z,19.10
2019-02-16T17:35:35.217Z,15.93
2019-02-16T17:38:19.420Z,17.50
2019-02-16T17:41:22.508Z,17.50
2019-02-16T17:44:11.889Z,20.00
2019-02-16T17:46:58.714Z,22.50
2019-02-16T17:49:43.053Z,25.43
2019-02-16T17:52:28.913Z,18.03
2019-02-16T17:55:22.824Z,18.67
2019-02-16T17:58:11.164Z,16.97
2019-02-16T18:01:11.557Z,16.37
2019-02-16T18:04:06.417Z,18.80
2019-02-16T18:06:58.184Z,17.37
2019-02-16T18:09:37.345Z,16.77
2019-02-16T18:12:25.508Z,16.93
2019-02-16T18:15:16.845Z,23.10
2019-02-16T18:18:07.936Z,18.13
2019-02-16T18:20:50.169Z,18.83
2019-02-16T18:23:39.434Z,19.53
2019-02-16T18:26:22.690Z,19.07
2019-02-16T18:29:22.232Z,16.23
2019-02-16T18:32:31.184Z,17.67
2019-02-16T18:35:35.009Z,16.73
2019-02-16T18:38:20.985Z,16.43
2019-02-16T18:41:11.250Z,31.10
2019-02-16T18:44:04.803Z,35.60
2019-02-16T18:46:54.648Z,38.60
2019-02-16T18:49:57.483Z,20.50
2019-02-16T18:52:46.201Z,24.77
2019-02-16T18:55:41.131Z,18.85
2019-02-16T18:58:42.569Z,19.57
2019-02-16T19:01:22.198Z,18.73
2019-02-16T19:04:16.556Z,18.43
2019-02-16T19:06:57.775Z,21.30
2019-02-16T19:10:10.004Z,20.60
2019-02-16T19:13:00.561Z,20.60
2019-02-16T19:15:50.034Z,25.17
2019-02-16T19:18:42.179Z,28.67
2019-02-16T19:21:21.784Z,26.13
2019-02-16T19:24:05.612Z,23.80
2019-02-16T19:26:52.269Z,22.20
2019-02-16T19:29:50.244Z,23.07
2019-02-16T19:32:36.598Z,22.27
2019-02-16T19:35:32.411Z,24.98
2019-02-16T19:38:22.358Z,26.27
2019-02-16T19:41:01.037Z,24.70
2019-02-16T19:43:42.171Z,25.20
2019-02-16T19:46:21.313Z,24.10
2019-02-16T19:49:08.719Z,23.23
2019-02-16T19:52:03.349Z,23.83
2019-02-16T19:54:55.079Z,25.10
2019-02-16T19:57:43.624Z,24.67
2019-02-16T20:00:31.029Z,23.70
2019-02-16T20:03:33.093Z,21.17
2019-02-16T20:06:34.892Z,21.60
2019-02-16T20:09:18.203Z,22.03
2019-02-16T20:12:07.065Z,22.90
2019-02-16T20:14:58.165Z,23.47
2019-02-16T20:17:32.594Z,20.30
2019-02-16T20:20:14.654Z,30.40
2019-02-16T20:23:03.382Z,27.00
2019-02-16T20:25:50.646Z,25.17
2019-02-16T20:28:31.153Z,21.60
2019-02-16T20:31:20.237Z,18.17
2019-02-16T20:34:09.129Z,18.60
2019-02-16T20:36:45.089Z,17.30
2019-02-16T20:39:37.627Z,16.77
2019-02-16T20:42:38.836Z,18.50
2019-02-16T20:45:20.573Z,17.33
2019-02-16T20:47:58.234Z,13.90
2019-02-16T20:50:51.563Z,12.37
2019-02-16T20:53:38.916Z,12.17
2019-02-16T20:56:30.532Z,10.10
2019-02-16T20:59:20.016Z,9.80
2019-02-16T21:02:07.627Z,9.20
2019-02-16T21:04:51.022Z,9.65
2019-02-16T21:07:38.033Z,9.83
2019-02-16T21:10:33.603Z,9.63
2019-02-16T21:13:09.128Z,10.23
2019-02-16T21:15:48.951Z,8.90
2019-02-16T21:18:38.232Z,8.33
2019-02-16T21:21:29.530Z,8.67
2019-02-16T21:24:16.622Z,7.20
2019-02-16T21:27:23.258Z,7.97
2019-02-16T21:30:13.481Z,7.67
2019-02-16T21:32:59.187Z,8.63
2019-02-16T21:35:53.113Z,7.73
2019-02-16T21:38:43.154Z,6.83
2019-02-16T21:41:30.393Z,7.10
2019-02-16T21:44:15.490Z,6.50
2019-02-16T21:47:07.992Z,7.27
2019-02-16T21:50:17.862Z,6.20
2019-02-16T21:53:05.174Z,7.17
2019-02-16T21:55:49.078Z,7.03
2019-02-16T21:58:39.416Z,6.60
2019-02-16T22:01:31.091Z,6.37
2019-02-16T22:04:21.882Z,7.00
2019-02-16T22:07:13.755Z,7.13
2019-02-16T22:10:11.921Z,7.47
2019-02-16T22:13:03.529Z,7.67
2019-02-16T22:15:33.709Z,7.33
2019-02-16T22:18:03.278Z,6.95
2019-02-16T22:20:33.150Z,6.90
2019-02-16T22:23:03.829Z,7.73
2019-02-16T22:25:33.874Z,7.20
2019-02-16T22:28:03.313Z,6.97
2019-02-16T22:30:35.449Z,8.10
2019-02-16T22:33:04.885Z,8.00
2019-02-16T22:35:39.412Z,8.05
2019-02-16T22:38:09.791Z,8.60
2019-02-16T22:40:39.910Z,7.37
2019-02-16T22:43:09.550Z,7.80
2019-02-16T22:45:39.589Z,7.13
2019-02-16T22:48:09.020Z,6.73
2019-02-16T22:50:39.895Z,7.80
2019-02-16T22:53:10.463Z,7.63
2019-02-16T22:55:40.956Z,7.97
2019-02-16T22:58:10.532Z,7.20
2019-02-16T23:00:50.448Z,7.07
2019-02-16T23:03:19.946Z,7.63
2019-02-16T23:05:49.258Z,8.20
2019-02-16T23:08:19.053Z,7.60
2019-02-16T23:10:49.077Z,8.40
2019-02-16T23:13:18.813Z,11.03
2019-02-16T23:15:49.387Z,10.43
2019-02-16T23:18:22.041Z,7.90
2019-02-16T23:20:53.170Z,8.20
2019-02-16T23:23:22.572Z,8.17
2019-02-16T23:25:51.959Z,8.10
2019-02-16T23:28:21.349Z,8.80
2019-02-16T23:30:50.783Z,9.33
2019-02-16T23:33:20.162Z,8.50
2019-02-16T23:35:49.751Z,8.77
2019-02-16T23:38:19.584Z,9.18
2019-02-16T23:40:49.015Z,9.00
2019-02-16T23:43:18.784Z,8.90
2019-02-16T23:45:48.793Z,8.80
2019-02-16T23:48:18.541Z,8.23
2019-02-16T23:50:48.320Z,9.27
2019-02-16T23:53:18.126Z,8.95
2019-02-16T23:55:47.580Z,9.30
2019-02-16T23:58:18.116Z,9.53
